KNGP/NGP METAR and TAF weather

Enter ICAO airport designator
Station Type Date Time Source
KNGP METAR 2020/09/18 05:56 UTC NOAA

KNGP 180556Z AUTO 34010KT 10SM FEW044 SCT055 26/23 A2993 RMK AO2 SLP134 60000 T02560228 10256 20239 403220239 58001


Station Type Date Time Source
KNGP Decoded METAR 2020/09/18 05:56 UTC NOAA

CORPUS CHRISTI NAVAL AIR STN, TX, United States (KNGP) 27-41N 097-17W
Sep 18, 2020 - 01:56 AM EDT / 2020.09.18 0556 UTC
Wind: from the NNW (340 degrees) at 12 MPH (10 KT):0
Visibility: 10 mile(s):0
Sky conditions: partly cloudy
Temperature: 78.1 F (25.6 C)
Dew Point: 73.0 F (22.8 C)
Relative Humidity: 84%
Pressure (altimeter): 29.93 in. Hg (1013 hPa)
Pressure tendency: 0.00 inches (0.1 hPa) lower than three hours ago
ob: KNGP 180556Z AUTO 34010KT 10SM FEW044 SCT055 26/23 A2993 RMK AO2 SLP134 60000 T02560228 10256 20239 403220239 58001
cycle: 6

Station Type Date Time Source
KNGP TAF 2020/09/17 23:09 UTC NOAA

TAF KNGP 1723/1823 01010KT 9999 VCTS SCT020CB BKN050 OVC100 QNH2987INS
TEMPO 1723/1801 VRB15G30KT 3200 TSRA BKN020CB
FM180100 01010KT 9999 VCSH SCT020 BKN100 BKN250 QNH2988INS
TEMPO 1808/1814 4800 RA BR BKN020
FM181800 03015G23KT 9999 FEW030 SCT060 BKN180 QNH2988INS AUTOMATED SENSOR METWATCH 1804 TIL 1811 T26/1812Z T30/1820Z FN20058

Example: see airport list